EHAM/AMS METAR and TAF weather

Enter ICAO airport designator
Station Type Date Time Source
EHAM METAR 2019/08/23 17:55 UTC NOAA

EHAM 231755Z 08005KT CAVOK 22/13 Q1024 NOSIG


Station Type Date Time Source
EHAM Decoded METAR 2019/08/23 17:55 UTC NOAA

Station name not available
Aug 23, 2019 - 01:55 PM EDT / 2019.08.23 1755 UTC
Wind: from the E (080 degrees) at 6 MPH (5 KT):0
Visibility: greater than 7 mile(s):0
Temperature: 71 F (22 C)
Dew Point: 55 F (13 C)
Relative Humidity: 56%
Pressure (altimeter): 30.24 in. Hg (1024 hPa)
ob: EHAM 231755Z 08005KT CAVOK 22/13 Q1024 NOSIG
cycle: 18

Station Type Date Time Source
EHAM TAF 2019/08/23 18:27 UTC NOAA

TAF TAF EHAM 231651Z 2318/2424 06006KT CAVOK
BECMG 2406/2409 11006KT
BECMG 2415/2418 07005KT

Example: see airport list